1999 HSK2799 (1999062S12121)


On this page: IBTrACS data - Map and Plots - Positions - Intensities - Original source data

Summary

Start Mar 3
End Mar 10
Basin SI
LMI 35 kt
Sources jtwc_sh
neumann
In WMO? No
Previous storm 1999 DAVINA (SI)
Previous in basin 1999 DAVINA (SI)
Concurrent storms 1999 GITA (SP)
1999 DAVINA (SI)
1999 HSK2799 (SI)
Next in basin 1999 E39899 (SI)
Next storm 1999 HALI (SP)

top of page IBTrACS Data: File Access

top of page HURSAT Data: File Access

Image of storm

top of page Plots:

Map of storm track will not appear if FTP is down
Time series of cyclone Maximum Sustained Wind will not appear if FTP is down
Time series of cyclone Minimum Central Pressure will not appear if FTP is down

top of page Track Data:Position

jtwc_sh neumann
Date Lat Lon Lat Lon
1999-03-03 00:00:00 -12.0 121.4 -12.0 121.4
1999-03-03 06:00:00 -12.2 120.6 -12.2 120.6
1999-03-03 12:00:00 -12.5 120.0 -12.5 120.0
1999-03-03 18:00:00 -12.8 119.2 -12.8 119.2
1999-03-04 00:00:00 -13.3 117.9 -13.3 117.9
1999-03-04 06:00:00 -13.8 116.3 -13.8 116.3
1999-03-04 12:00:00 -14.0 114.7 -14.0 114.7
1999-03-04 18:00:00 -14.4 113.4 -14.4 113.4
1999-03-05 00:00:00 -14.5 111.6 -14.5 111.6
1999-03-05 06:00:00 -14.2 109.6 -14.2 109.6
1999-03-05 12:00:00 -13.8 107.8 -13.8 107.8
1999-03-05 18:00:00 -13.7 106.0 -13.7 106.0
1999-03-06 00:00:00 -13.9 104.4 -13.9 104.4
1999-03-06 06:00:00 -14.2 102.8 -14.2 102.8
1999-03-06 12:00:00 -14.1 101.6 -14.1 101.6
1999-03-06 18:00:00 -14.8 99.9 -14.8 99.9
1999-03-07 00:00:00 -14.9 98.5 -14.9 98.5
1999-03-07 06:00:00 -14.9 97.2 -14.9 97.2
1999-03-07 12:00:00 -14.6 96.0 -14.6 96.0
1999-03-07 18:00:00 -14.5 94.7 -14.5 94.7
1999-03-08 00:00:00 -14.8 93.8 -14.8 93.8
1999-03-08 06:00:00 -14.8 92.0 -14.8 92.0
1999-03-08 12:00:00 -14.5 90.2 -14.5 90.2
1999-03-08 18:00:00 -14.5 88.5 -14.5 88.5
1999-03-09 00:00:00 -13.9 86.4 -13.9 86.4
jtwc_sh neumann
1999-03-09 06:00:00 -13.3 84.7
1999-03-09 12:00:00 -13.1 82.7
1999-03-09 18:00:00 -12.8 80.9
1999-03-10 00:00:00 -12.5 78.6
1999-03-10 06:00:00 -12.4 76.0
1999-03-10 12:00:00 -12.7 73.0
1999-03-10 18:00:00 -13.0 70.9

top of pageTrack Data:Intensity

jtwc_sh neumann
Date Wind Pres Wind Pres
1999-03-03 00:00:00 25. 25.
1999-03-03 06:00:00 25. 25.
1999-03-03 12:00:00 25. 25.
1999-03-03 18:00:00 25. 25.
1999-03-04 00:00:00 25. 25.
1999-03-04 06:00:00 25. 25.
1999-03-04 12:00:00 25. 25.
1999-03-04 18:00:00 25. 25.
1999-03-05 00:00:00 25. 25.
1999-03-05 06:00:00 25. 25.
1999-03-05 12:00:00 25. 25.
1999-03-05 18:00:00 25. 25.
1999-03-06 00:00:00 25. 25.
1999-03-06 06:00:00 25. 25.
1999-03-06 12:00:00 25. 25.
1999-03-06 18:00:00 25. 25.
1999-03-07 00:00:00 30. 30.
1999-03-07 06:00:00 30. 30.
1999-03-07 12:00:00 30. 30.
1999-03-07 18:00:00 30. 30.
1999-03-08 00:00:00 35. 35.
1999-03-08 06:00:00 30. 30.
1999-03-08 12:00:00 30. 30.
1999-03-08 18:00:00 30. 30.
1999-03-09 00:00:00 30. 30.
jtwc_sh neumann
1999-03-09 06:00:00 30.
1999-03-09 12:00:00 30.
1999-03-09 18:00:00 25.
1999-03-10 00:00:00 25.
1999-03-10 06:00:00 25.
1999-03-10 12:00:00 25.
1999-03-10 18:00:00 25.

top of page Links to source data

Source Source file Format
jtwc_sh bsh261999.txt ATCF
neumann tracks.sh:Storm=1166:HSK2799:BSH261999:JTWC HURDAT